Terminal Aerodrome Forecast
Issued by NWS

Home | Current Version | Previous Version | Text Only | Print | Product List | Glossary On
Versions: 1 2 3 4 5 6 7 8 9 10 11 12
000
FTUS43 KEAX 131700
TAFSTJ
TAF
KSTJ 131720Z 1318/1418 17007KT P6SM SCT035
     FM140700 00000KT 2SM BR SCT002
      TEMPO 1409/1413 1/2SM FG VV001
     FM141300 16005KT P6SM SCT020=

USA.gov is the U.S. government's official web portal to all federal, state and local government web resources and services.